sensor_id;sensor_type;location;lat;lon;timestamp;pressure;altitude;pressure_sealevel;temperature;humidity
54872;BME280;43914;57.680;11.982;2022-07-23T00:02:06;100480.75;;;16.20;90.91
54872;BME280;43914;57.680;11.982;2022-07-23T00:04:33;100482.10;;;16.20;91.04
54872;BME280;43914;57.680;11.982;2022-07-23T00:06:59;100493.33;;;16.23;91.03
54872;BME280;43914;57.680;11.982;2022-07-23T00:09:25;100486.61;;;16.26;90.99
54872;BME280;43914;57.680;11.982;2022-07-23T00:11:51;100495.13;;;16.29;90.99
54872;BME280;43914;57.680;11.982;2022-07-23T00:14:17;100494.36;;;16.32;90.84
54872;BME280;43914;57.680;11.982;2022-07-23T00:16:43;100496.91;;;16.36;90.81
54872;BME280;43914;57.680;11.982;2022-07-23T00:19:09;100493.95;;;16.37;90.66
54872;BME280;43914;57.680;11.982;2022-07-23T00:21:35;100492.69;;;16.40;90.71
54872;BME280;43914;57.680;11.982;2022-07-23T00:24:01;100486.28;;;16.43;90.69
54872;BME280;43914;57.680;11.982;2022-07-23T00:26:29;100482.21;;;16.43;90.58
54872;BME280;43914;57.680;11.982;2022-07-23T00:28:55;100482.81;;;16.46;90.34
54872;BME280;43914;57.680;11.982;2022-07-23T00:31:21;100481.45;;;16.46;90.41
54872;BME280;43914;57.680;11.982;2022-07-23T00:33:47;100483.33;;;16.45;90.13
54872;BME280;43914;57.680;11.982;2022-07-23T00:36:13;100471.88;;;16.43;90.13
54872;BME280;43914;57.680;11.982;2022-07-23T00:38:39;100478.61;;;16.40;90.15
54872;BME280;43914;57.680;11.982;2022-07-23T00:41:05;100475.30;;;16.38;90.20
54872;BME280;43914;57.680;11.982;2022-07-23T00:43:31;100474.67;;;16.36;90.30
54872;BME280;43914;57.680;11.982;2022-07-23T00:45:56;100473.78;;;16.33;90.30
54872;BME280;43914;57.680;11.982;2022-07-23T00:48:22;100473.27;;;16.34;90.44
54872;BME280;43914;57.680;11.982;2022-07-23T00:50:48;100468.14;;;16.35;90.41
54872;BME280;43914;57.680;11.982;2022-07-23T00:53:14;100477.34;;;16.34;90.40
54872;BME280;43914;57.680;11.982;2022-07-23T00:55:41;100463.17;;;16.32;90.25
54872;BME280;43914;57.680;11.982;2022-07-23T00:58:08;100465.05;;;16.31;90.16
54872;BME280;43914;57.680;11.982;2022-07-23T01:00:35;100453.77;;;16.25;90.38
54872;BME280;43914;57.680;11.982;2022-07-23T01:03:01;100449.78;;;16.18;90.29
54872;BME280;43914;57.680;11.982;2022-07-23T01:05:27;100452.90;;;16.12;90.36
54872;BME280;43914;57.680;11.982;2022-07-23T01:07:53;100458.02;;;16.11;90.61
54872;BME280;43914;57.680;11.982;2022-07-23T01:10:19;100466.91;;;16.09;90.78
54872;BME280;43914;57.680;11.982;2022-07-23T01:13:03;100467.67;;;16.07;90.68
54872;BME280;43914;57.680;11.982;2022-07-23T01:15:33;100470.59;;;16.06;90.77
54872;BME280;43914;57.680;11.982;2022-07-23T01:18:00;100467.80;;;16.03;90.84
54872;BME280;43914;57.680;11.982;2022-07-23T01:20:27;100469.02;;;15.98;90.63
54872;BME280;43914;57.680;11.982;2022-07-23T01:22:53;100474.30;;;15.93;90.85
54872;BME280;43914;57.680;11.982;2022-07-23T01:25:20;100476.11;;;15.90;91.12
54872;BME280;43914;57.680;11.982;2022-07-23T01:27:47;100483.18;;;15.91;91.36
54872;BME280;43914;57.680;11.982;2022-07-23T01:30:13;100475.69;;;15.86;91.35
54872;BME280;43914;57.680;11.982;2022-07-23T01:32:39;100474.27;;;15.83;91.45
54872;BME280;43914;57.680;11.982;2022-07-23T01:35:06;100474.13;;;15.78;91.60
54872;BME280;43914;57.680;11.982;2022-07-23T01:37:33;100469.52;;;15.79;91.84
54872;BME280;43914;57.680;11.982;2022-07-23T01:39:59;100467.27;;;15.76;91.83
54872;BME280;43914;57.680;11.982;2022-07-23T01:42:25;100472.47;;;15.77;91.88
54872;BME280;43914;57.680;11.982;2022-07-23T01:44:51;100478.70;;;15.78;91.86
54872;BME280;43914;57.680;11.982;2022-07-23T01:47:16;100487.08;;;15.76;91.75
54872;BME280;43914;57.680;11.982;2022-07-23T01:49:42;100482.38;;;15.74;91.59
54872;BME280;43914;57.680;11.982;2022-07-23T01:52:09;100481.03;;;15.74;91.61
54872;BME280;43914;57.680;11.982;2022-07-23T01:54:37;100481.03;;;15.74;91.58
54872;BME280;43914;57.680;11.982;2022-07-23T01:57:05;100477.20;;;15.72;91.44
54872;BME280;43914;57.680;11.982;2022-07-23T01:59:31;100473.35;;;15.71;91.44
54872;BME280;43914;57.680;11.982;2022-07-23T02:01:58;100474.70;;;15.71;91.30
54872;BME280;43914;57.680;11.982;2022-07-23T02:04:25;100481.17;;;15.70;91.34
54872;BME280;43914;57.680;11.982;2022-07-23T02:06:52;100479.61;;;15.71;91.31
54872;BME280;43914;57.680;11.982;2022-07-23T02:09:18;100475.30;;;15.73;91.33
54872;BME280;43914;57.680;11.982;2022-07-23T02:11:44;100472.30;;;15.72;91.04
54872;BME280;43914;57.680;11.982;2022-07-23T02:14:10;100468.23;;;15.72;90.98
54872;BME280;43914;57.680;11.982;2022-07-23T02:16:36;100457.64;;;15.70;90.88
54872;BME280;43914;57.680;11.982;2022-07-23T02:19:02;100471.19;;;15.70;90.55
54872;BME280;43914;57.680;11.982;2022-07-23T02:21:29;100469.73;;;15.68;90.29
54872;BME280;43914;57.680;11.982;2022-07-23T02:23:55;100472.60;;;15.64;90.27
54872;BME280;43914;57.680;11.982;2022-07-23T02:26:20;100472.00;;;15.62;90.26
54872;BME280;43914;57.680;11.982;2022-07-23T02:28:46;100481.18;;;15.61;90.24
54872;BME280;43914;57.680;11.982;2022-07-23T02:31:12;100475.38;;;15.57;89.94
54872;BME280;43914;57.680;11.982;2022-07-23T02:33:38;100473.66;;;15.53;89.99
54872;BME280;43914;57.680;11.982;2022-07-23T02:36:04;100476.52;;;15.49;89.78
54872;BME280;43914;57.680;11.982;2022-07-23T02:38:30;100478.63;;;15.47;89.93
54872;BME280;43914;57.680;11.982;2022-07-23T02:40:56;100483.19;;;15.47;90.03
54872;BME280;43914;57.680;11.982;2022-07-23T02:43:24;100488.61;;;15.47;90.32
54872;BME280;43914;57.680;11.982;2022-07-23T02:45:50;100492.47;;;15.48;90.17
54872;BME280;43914;57.680;11.982;2022-07-23T02:48:15;100488.09;;;15.47;90.23
54872;BME280;43914;57.680;11.982;2022-07-23T02:50:41;100480.28;;;15.48;90.06
54872;BME280;43914;57.680;11.982;2022-07-23T02:53:07;100479.22;;;15.49;90.09
54872;BME280;43914;57.680;11.982;2022-07-23T02:55:33;100480.87;;;15.50;89.87
54872;BME280;43914;57.680;11.982;2022-07-23T02:57:59;100478.68;;;15.50;89.96
54872;BME280;43914;57.680;11.982;2022-07-23T03:00:25;100478.17;;;15.50;89.88
54872;BME280;43914;57.680;11.982;2022-07-23T03:02:51;100476.81;;;15.50;89.94
54872;BME280;43914;57.680;11.982;2022-07-23T03:05:17;100475.46;;;15.50;90.02
54872;BME280;43914;57.680;11.982;2022-07-23T03:07:43;100483.89;;;15.51;89.80
54872;BME280;43914;57.680;11.982;2022-07-23T03:10:09;100493.67;;;15.52;89.93
54872;BME280;43914;57.680;11.982;2022-07-23T03:12:35;100486.59;;;15.51;89.94
54872;BME280;43914;57.680;11.982;2022-07-23T03:15:00;100491.77;;;15.53;89.91
54872;BME280;43914;57.680;11.982;2022-07-23T03:17:26;100493.12;;;15.53;90.05
54872;BME280;43914;57.680;11.982;2022-07-23T03:19:52;100493.97;;;15.53;89.98
54872;BME280;43914;57.680;11.982;2022-07-23T03:22:18;100494.87;;;15.56;90.01
54872;BME280;43914;57.680;11.982;2022-07-23T03:24:44;100495.92;;;15.55;89.79
54872;BME280;43914;57.680;11.982;2022-07-23T03:27:20;100490.20;;;15.54;89.84
54872;BME280;43914;57.680;11.982;2022-07-23T03:29:46;100492.92;;;15.54;89.94
54872;BME280;43914;57.680;11.982;2022-07-23T03:32:12;100494.48;;;15.53;89.91
54872;BME280;43914;57.680;11.982;2022-07-23T03:34:38;100492.31;;;15.52;90.06
54872;BME280;43914;57.680;11.982;2022-07-23T03:37:04;100498.78;;;15.51;90.18
54872;BME280;43914;57.680;11.982;2022-07-23T03:39:30;100503.15;;;15.52;90.16
54872;BME280;43914;57.680;11.982;2022-07-23T03:41:56;100499.90;;;15.53;89.98
54872;BME280;43914;57.680;11.982;2022-07-23T03:44:22;100493.37;;;15.51;89.77
54872;BME280;43914;57.680;11.982;2022-07-23T03:46:48;100500.44;;;15.52;89.74
54872;BME280;43914;57.680;11.982;2022-07-23T03:49:14;100491.47;;;15.52;89.66
54872;BME280;43914;57.680;11.982;2022-07-23T03:51:40;100488.55;;;15.53;89.54
54872;BME280;43914;57.680;11.982;2022-07-23T03:54:06;100490.96;;;15.52;89.47
54872;BME280;43914;57.680;11.982;2022-07-23T03:56:32;100485.84;;;15.53;89.33
54872;BME280;43914;57.680;11.982;2022-07-23T03:58:58;100480.13;;;15.52;89.20
54872;BME280;43914;57.680;11.982;2022-07-23T04:01:24;100482.08;;;15.54;89.26
54872;BME280;43914;57.680;11.982;2022-07-23T04:03:50;100483.20;;;15.56;89.30
54872;BME280;43914;57.680;11.982;2022-07-23T04:06:16;100481.94;;;15.58;89.16
54872;BME280;43914;57.680;11.982;2022-07-23T04:08:41;100476.81;;;15.60;88.92
54872;BME280;43914;57.680;11.982;2022-07-23T04:11:07;100470.95;;;15.63;88.85
54872;BME280;43914;57.680;11.982;2022-07-23T04:13:33;100473.66;;;15.63;88.63
54872;BME280;43914;57.680;11.982;2022-07-23T04:15:59;100469.44;;;15.67;88.83
54872;BME280;43914;57.680;11.982;2022-07-23T04:18:27;100473.05;;;15.70;88.65
54872;BME280;43914;57.680;11.982;2022-07-23T04:20:52;100473.14;;;15.72;88.36
54872;BME280;43914;57.680;11.982;2022-07-23T04:23:19;100480.73;;;15.73;88.12
54872;BME280;43914;57.680;11.982;2022-07-23T04:25:45;100477.80;;;15.75;88.03
54872;BME280;43914;57.680;11.982;2022-07-23T04:28:10;100476.54;;;15.77;87.92
54872;BME280;43914;57.680;11.982;2022-07-23T04:30:36;100463.50;;;15.77;87.50
54872;BME280;43914;57.680;11.982;2022-07-23T04:33:03;100458.92;;;15.77;87.41
54872;BME280;43914;57.680;11.982;2022-07-23T04:35:30;100464.10;;;15.79;87.23
54872;BME280;43914;57.680;11.982;2022-07-23T04:37:56;100464.64;;;15.78;86.62
54872;BME280;43914;57.680;11.982;2022-07-23T04:40:22;100470.13;;;15.81;86.61
54872;BME280;43914;57.680;11.982;2022-07-23T04:42:48;100465.84;;;15.82;86.31
54872;BME280;43914;57.680;11.982;2022-07-23T04:45:14;100468.09;;;15.85;85.85
54872;BME280;43914;57.680;11.982;2022-07-23T04:47:39;100466.45;;;15.84;85.06
54872;BME280;43914;57.680;11.982;2022-07-23T04:50:05;100460.27;;;15.86;84.83
54872;BME280;43914;57.680;11.982;2022-07-23T04:52:32;100464.51;;;15.92;84.43
54872;BME280;43914;57.680;11.982;2022-07-23T04:54:57;100455.62;;;15.94;83.99
54872;BME280;43914;57.680;11.982;2022-07-23T04:57:24;100461.73;;;15.98;83.68
54872;BME280;43914;57.680;11.982;2022-07-23T04:59:50;100459.61;;;16.00;83.59
54872;BME280;43914;57.680;11.982;2022-07-23T05:02:15;100452.00;;;16.00;83.51
54872;BME280;43914;57.680;11.982;2022-07-23T05:04:41;100450.48;;;16.04;83.66
54872;BME280;43914;57.680;11.982;2022-07-23T05:07:07;100448.23;;;16.10;83.73
54872;BME280;43914;57.680;11.982;2022-07-23T05:09:33;100444.82;;;16.15;83.80
54872;BME280;43914;57.680;11.982;2022-07-23T05:12:00;100439.78;;;16.19;83.21
54872;BME280;43914;57.680;11.982;2022-07-23T05:14:25;100430.75;;;16.15;83.23
54872;BME280;43914;57.680;11.982;2022-07-23T05:16:52;100433.30;;;16.20;83.53
54872;BME280;43914;57.680;11.982;2022-07-23T05:19:18;100430.13;;;16.23;83.44
54872;BME280;43914;57.680;11.982;2022-07-23T05:21:43;100431.02;;;16.26;83.45
54872;BME280;43914;57.680;11.982;2022-07-23T05:24:09;100435.46;;;16.29;83.09
54872;BME280;43914;57.680;11.982;2022-07-23T05:26:35;100445.47;;;16.29;82.86
54872;BME280;43914;57.680;11.982;2022-07-23T05:29:01;100443.52;;;16.27;82.86
54872;BME280;43914;57.680;11.982;2022-07-23T05:31:27;100449.53;;;16.29;82.59
54872;BME280;43914;57.680;11.982;2022-07-23T05:33:52;100451.19;;;16.30;82.37
54872;BME280;43914;57.680;11.982;2022-07-23T05:36:18;100447.25;;;16.35;82.21
54872;BME280;43914;57.680;11.982;2022-07-23T05:38:44;100449.20;;;16.37;81.61
54872;BME280;43914;57.680;11.982;2022-07-23T05:41:10;100448.18;;;16.38;80.78
54872;BME280;43914;57.680;11.982;2022-07-23T05:43:36;100444.63;;;16.38;80.38
54872;BME280;43914;57.680;11.982;2022-07-23T05:46:02;100447.25;;;16.35;80.47
54872;BME280;43914;57.680;11.982;2022-07-23T05:48:27;100447.84;;;16.37;80.72
54872;BME280;43914;57.680;11.982;2022-07-23T05:50:53;100445.47;;;16.38;80.54
54872;BME280;43914;57.680;11.982;2022-07-23T05:53:19;100451.33;;;16.35;80.59
54872;BME280;43914;57.680;11.982;2022-07-23T05:55:45;100463.02;;;16.36;80.97
54872;BME280;43914;57.680;11.982;2022-07-23T05:58:11;100468.95;;;16.35;81.11
54872;BME280;43914;57.680;11.982;2022-07-23T06:00:37;100471.15;;;16.36;80.94
54872;BME280;43914;57.680;11.982;2022-07-23T06:03:03;100465.18;;;16.36;80.93
54872;BME280;43914;57.680;11.982;2022-07-23T06:05:28;100469.71;;;16.33;80.92
54872;BME280;43914;57.680;11.982;2022-07-23T06:07:54;100460.68;;;16.30;80.99
54872;BME280;43914;57.680;11.982;2022-07-23T06:10:21;100463.09;;;16.29;80.92
54872;BME280;43914;57.680;11.982;2022-07-23T06:12:47;100456.86;;;16.28;81.17
54872;BME280;43914;57.680;11.982;2022-07-23T06:15:13;100460.03;;;16.25;81.00
54872;BME280;43914;57.680;11.982;2022-07-23T06:17:39;100459.73;;;16.24;81.35
54872;BME280;43914;57.680;11.982;2022-07-23T06:20:07;100459.73;;;16.24;81.35
54872;BME280;43914;57.680;11.982;2022-07-23T06:22:34;100458.97;;;16.26;81.12
54872;BME280;43914;57.680;11.982;2022-07-23T06:25:00;100459.03;;;16.29;81.06
54872;BME280;43914;57.680;11.982;2022-07-23T06:27:26;100456.70;;;16.33;81.00
54872;BME280;43914;57.680;11.982;2022-07-23T06:29:52;100457.51;;;16.33;80.82
54872;BME280;43914;57.680;11.982;2022-07-23T06:32:18;100462.17;;;16.35;80.60
54872;BME280;43914;57.680;11.982;2022-07-23T06:34:44;100458.70;;;16.37;80.46
54872;BME280;43914;57.680;11.982;2022-07-23T06:37:10;100455.61;;;16.43;80.11
54872;BME280;43914;57.680;11.982;2022-07-23T06:39:36;100451.62;;;16.46;80.03
54872;BME280;43914;57.680;11.982;2022-07-23T06:42:02;100456.50;;;16.46;79.82
54872;BME280;43914;57.680;11.982;2022-07-23T06:44:28;100449.25;;;16.49;79.39
54872;BME280;43914;57.680;11.982;2022-07-23T06:46:54;100443.31;;;16.50;79.03
54872;BME280;43914;57.680;11.982;2022-07-23T06:49:20;100437.59;;;16.49;78.52
54872;BME280;43914;57.680;11.982;2022-07-23T06:51:46;100444.80;;;16.55;79.08
54872;BME280;43914;57.680;11.982;2022-07-23T06:54:11;100441.73;;;16.63;78.96
54872;BME280;43914;57.680;11.982;2022-07-23T06:56:37;100444.36;;;16.70;78.61
54872;BME280;43914;57.680;11.982;2022-07-23T06:59:04;100453.00;;;16.79;78.44
54872;BME280;43914;57.680;11.982;2022-07-23T07:01:30;100453.09;;;16.72;77.74
54872;BME280;43914;57.680;11.982;2022-07-23T07:03:56;100457.55;;;16.66;77.62
54872;BME280;43914;57.680;11.982;2022-07-23T07:06:21;100459.12;;;16.53;77.71
54872;BME280;43914;57.680;11.982;2022-07-23T07:08:47;100454.08;;;16.47;78.05
54872;BME280;43914;57.680;11.982;2022-07-23T07:11:13;100456.50;;;16.46;78.62
54872;BME280;43914;57.680;11.982;2022-07-23T07:13:39;100461.11;;;16.46;78.94
54872;BME280;43914;57.680;11.982;2022-07-23T07:16:05;100461.11;;;16.46;78.94
54872;BME280;43914;57.680;11.982;2022-07-23T07:18:31;100462.98;;;16.45;79.01
54872;BME280;43914;57.680;11.982;2022-07-23T07:20:57;100470.47;;;16.40;79.14
54872;BME280;43914;57.680;11.982;2022-07-23T07:23:23;100460.68;;;16.39;79.32
54872;BME280;43914;57.680;11.982;2022-07-23T07:25:49;100468.87;;;16.42;79.28
54872;BME280;43914;57.680;11.982;2022-07-23T07:28:15;100470.22;;;16.42;79.53
54872;BME280;43914;57.680;11.982;2022-07-23T07:30:42;100462.93;;;16.42;79.61
54872;BME280;43914;57.680;11.982;2022-07-23T07:33:08;100470.77;;;16.41;79.56
54872;BME280;43914;57.680;11.982;2022-07-23T07:35:34;100467.52;;;16.42;79.77
54872;BME280;43914;57.680;11.982;2022-07-23T07:38:00;100468.65;;;16.43;79.99
54872;BME280;43914;57.680;11.982;2022-07-23T07:40:26;100459.97;;;16.44;80.07
54872;BME280;43914;57.680;11.982;2022-07-23T07:42:53;100462.59;;;16.51;79.93
54872;BME280;43914;57.680;11.982;2022-07-23T07:45:22;100467.39;;;16.58;79.78
54872;BME280;43914;57.680;11.982;2022-07-23T07:47:49;100472.73;;;16.65;79.73
54872;BME280;43914;57.680;11.982;2022-07-23T07:50:16;100473.70;;;16.70;79.30
54872;BME280;43914;57.680;11.982;2022-07-23T07:52:41;100474.42;;;16.68;79.03
54872;BME280;43914;57.680;11.982;2022-07-23T07:55:09;100475.19;;;16.66;79.25
54872;BME280;43914;57.680;11.982;2022-07-23T07:57:36;100472.89;;;16.61;78.98
54872;BME280;43914;57.680;11.982;2022-07-23T08:00:04;100478.78;;;16.57;79.49
54872;BME280;43914;57.680;11.982;2022-07-23T08:02:40;100477.73;;;16.58;80.07
54872;BME280;43914;57.680;11.982;2022-07-23T08:05:08;100488.92;;;16.62;79.61
54872;BME280;43914;57.680;11.982;2022-07-23T08:07:34;100489.77;;;16.63;79.09
54872;BME280;43914;57.680;11.982;2022-07-23T08:10:00;100494.35;;;16.62;78.66
54872;BME280;43914;57.680;11.982;2022-07-23T08:12:26;100494.35;;;16.62;78.66
54872;BME280;43914;57.680;11.982;2022-07-23T08:14:51;100496.14;;;16.68;79.05
54872;BME280;43914;57.680;11.982;2022-07-23T08:17:18;100494.73;;;16.66;78.55
54872;BME280;43914;57.680;11.982;2022-07-23T08:19:44;100500.08;;;16.63;78.81
54872;BME280;43914;57.680;11.982;2022-07-23T08:22:09;100506.81;;;16.61;78.83
54872;BME280;43914;57.680;11.982;2022-07-23T08:24:35;100506.97;;;16.56;78.83
54872;BME280;43914;57.680;11.982;2022-07-23T08:27:01;100509.61;;;16.54;78.84
54872;BME280;43914;57.680;11.982;2022-07-23T08:29:28;100506.13;;;16.56;79.13
54872;BME280;43914;57.680;11.982;2022-07-23T08:31:54;100510.71;;;16.65;79.20
54872;BME280;43914;57.680;11.982;2022-07-23T08:34:19;100510.71;;;16.65;79.20
54872;BME280;43914;57.680;11.982;2022-07-23T08:36:45;100511.61;;;16.68;79.15
54872;BME280;43914;57.680;11.982;2022-07-23T08:39:11;100514.75;;;16.74;79.15
54872;BME280;43914;57.680;11.982;2022-07-23T08:41:39;100506.98;;;16.78;78.72
54872;BME280;43914;57.680;11.982;2022-07-23T08:44:08;100513.55;;;16.91;78.61
54872;BME280;43914;57.680;11.982;2022-07-23T08:46:35;100524.25;;;17.05;78.14
54872;BME280;43914;57.680;11.982;2022-07-23T08:49:02;100525.73;;;17.10;77.71
54872;BME280;43914;57.680;11.982;2022-07-23T08:51:29;100513.86;;;17.13;77.32
54872;BME280;43914;57.680;11.982;2022-07-23T08:53:56;100515.77;;;17.13;76.84
54872;BME280;43914;57.680;11.982;2022-07-23T08:56:22;100507.32;;;17.12;76.72
54872;BME280;43914;57.680;11.982;2022-07-23T08:58:48;100500.75;;;17.10;76.86
54872;BME280;43914;57.680;11.982;2022-07-23T09:01:14;100504.25;;;17.20;77.04
54872;BME280;43914;57.680;11.982;2022-07-23T09:03:40;100503.09;;;17.28;76.75
54872;BME280;43914;57.680;11.982;2022-07-23T09:06:06;100494.06;;;17.37;76.27
54872;BME280;43914;57.680;11.982;2022-07-23T09:08:41;100492.41;;;17.48;75.97
54872;BME280;43914;57.680;11.982;2022-07-23T09:11:11;100488.37;;;17.62;75.83
54872;BME280;43914;57.680;11.982;2022-07-23T09:13:53;100493.32;;;17.77;75.58
54872;BME280;43914;57.680;11.982;2022-07-23T09:16:27;100495.66;;;17.85;75.48
54872;BME280;43914;57.680;11.982;2022-07-23T09:19:04;100502.82;;;17.89;74.36
54872;BME280;43914;57.680;11.982;2022-07-23T09:21:32;100499.03;;;17.90;74.16
54872;BME280;43914;57.680;11.982;2022-07-23T09:24:10;100502.15;;;17.96;74.18
54872;BME280;43914;57.680;11.982;2022-07-23T09:26:39;100504.34;;;17.97;73.73
54872;BME280;43914;57.680;11.982;2022-07-23T09:29:18;100497.26;;;17.96;73.51
54872;BME280;43914;57.680;11.982;2022-07-23T09:31:59;100502.08;;;17.94;73.57
54872;BME280;43914;57.680;11.982;2022-07-23T09:34:30;100500.91;;;17.89;73.10
54872;BME280;43914;57.680;11.982;2022-07-23T09:37:10;100510.42;;;17.89;73.75
54872;BME280;43914;57.680;11.982;2022-07-23T09:39:40;100508.55;;;17.90;73.20
54872;BME280;43914;57.680;11.982;2022-07-23T09:42:24;100515.09;;;17.92;73.01
54872;BME280;43914;57.680;11.982;2022-07-23T09:44:56;100514.50;;;17.89;72.73
54872;BME280;43914;57.680;11.982;2022-07-23T09:47:27;100517.52;;;17.91;72.97
54872;BME280;43914;57.680;11.982;2022-07-23T09:52:35;100520.89;;;17.95;72.86
54872;BME280;43914;57.680;11.982;2022-07-23T09:55:05;100521.38;;;17.92;72.82
54872;BME280;43914;57.680;11.982;2022-07-23T09:57:32;100518.10;;;17.93;72.67
54872;BME280;43914;57.680;11.982;2022-07-23T10:00:02;100515.94;;;17.92;72.54
54872;BME280;43914;57.680;11.982;2022-07-23T10:02:35;100521.59;;;17.91;72.34
54872;BME280;43914;57.680;11.982;2022-07-23T10:05:02;100528.94;;;17.90;72.48
54872;BME280;43914;57.680;11.982;2022-07-23T10:07:31;100527.47;;;17.85;72.44
54872;BME280;43914;57.680;11.982;2022-07-23T10:09:59;100527.52;;;17.76;72.55
54872;BME280;43914;57.680;11.982;2022-07-23T10:12:26;100526.13;;;17.73;72.82
54872;BME280;43914;57.680;11.982;2022-07-23T10:15:11;100527.19;;;17.72;72.90
54872;BME280;43914;57.680;11.982;2022-07-23T10:17:37;100524.77;;;17.73;73.15
54872;BME280;43914;57.680;11.982;2022-07-23T10:20:04;100540.30;;;17.75;72.95
54872;BME280;43914;57.680;11.982;2022-07-23T10:22:37;100541.25;;;17.81;73.19
54872;BME280;43914;57.680;11.982;2022-07-23T10:37:07;100543.30;;;18.00;72.30
54872;BME280;43914;57.680;11.982;2022-07-23T10:39:43;100540.23;;;18.08;71.70
54872;BME280;43914;57.680;11.982;2022-07-23T10:42:16;100540.69;;;18.17;71.64
54872;BME280;43914;57.680;11.982;2022-07-23T10:44:46;100539.59;;;18.30;70.59
54872;BME280;43914;57.680;11.982;2022-07-23T10:47:25;100543.00;;;18.37;69.83
54872;BME280;43914;57.680;11.982;2022-07-23T10:50:23;100534.64;;;18.41;70.32
54872;BME280;43914;57.680;11.982;2022-07-23T10:53:14;100533.08;;;18.45;69.37
54872;BME280;43914;57.680;11.982;2022-07-23T10:55:45;100527.31;;;18.42;69.33
54872;BME280;43914;57.680;11.982;2022-07-23T10:58:45;100530.62;;;18.44;69.90
54872;BME280;43914;57.680;11.982;2022-07-23T11:04:00;100533.77;;;18.38;68.92
54872;BME280;43914;57.680;11.982;2022-07-23T11:09:39;100526.61;;;18.35;69.55
54872;BME280;43914;57.680;11.982;2022-07-23T11:15:11;100531.16;;;18.58;70.33
54872;BME280;43914;57.680;11.982;2022-07-23T11:20:23;100528.13;;;18.71;69.14
54872;BME280;43914;57.680;11.982;2022-07-23T11:22:51;100524.86;;;18.72;69.00
54872;BME280;43914;57.680;11.982;2022-07-23T11:27:54;100530.84;;;18.71;68.43
54872;BME280;43914;57.680;11.982;2022-07-23T11:35:45;100532.13;;;18.66;69.18
54872;BME280;43914;57.680;11.982;2022-07-23T11:40:53;100533.62;;;18.74;69.38
54872;BME280;43914;57.680;11.982;2022-07-23T11:43:17;100535.63;;;18.64;68.62
54872;BME280;43914;57.680;11.982;2022-07-23T11:45:46;100536.05;;;18.58;68.79
54872;BME280;43914;57.680;11.982;2022-07-23T11:48:22;100532.98;;;18.55;69.02
54872;BME280;43914;57.680;11.982;2022-07-23T11:50:50;100537.03;;;18.52;69.03
54872;BME280;43914;57.680;11.982;2022-07-23T11:53:29;100532.30;;;18.48;69.19
54872;BME280;43914;57.680;11.982;2022-07-23T11:56:07;100538.30;;;18.47;69.26
54872;BME280;43914;57.680;11.982;2022-07-23T11:58:35;100537.45;;;18.46;69.39
54872;BME280;43914;57.680;11.982;2022-07-23T12:01:02;100538.09;;;18.51;69.67
54872;BME280;43914;57.680;11.982;2022-07-23T12:03:29;100540.04;;;18.53;69.50
54872;BME280;43914;57.680;11.982;2022-07-23T12:05:59;100542.22;;;18.54;69.49
54872;BME280;43914;57.680;11.982;2022-07-23T12:08:25;100537.41;;;18.58;69.84
54872;BME280;43914;57.680;11.982;2022-07-23T12:10:51;100539.25;;;18.70;69.73
54872;BME280;43914;57.680;11.982;2022-07-23T12:13:19;100539.31;;;18.72;69.26
54872;BME280;43914;57.680;11.982;2022-07-23T12:15:50;100540.27;;;18.81;69.12
54872;BME280;43914;57.680;11.982;2022-07-23T12:18:20;100537.63;;;18.86;69.22
54872;BME280;43914;57.680;11.982;2022-07-23T12:20:55;100542.12;;;18.92;68.93
54872;BME280;43914;57.680;11.982;2022-07-23T12:23:20;100542.52;;;18.98;69.17
54872;BME280;43914;57.680;11.982;2022-07-23T12:25:51;100539.45;;;19.09;69.41
54872;BME280;43914;57.680;11.982;2022-07-23T12:28:27;100539.55;;;19.17;69.08
54872;BME280;43914;57.680;11.982;2022-07-23T12:30:55;100535.86;;;19.23;68.92
54872;BME280;43914;57.680;11.982;2022-07-23T12:33:33;100532.06;;;19.24;68.52
54872;BME280;43914;57.680;11.982;2022-07-23T12:36:02;100540.84;;;19.29;68.30
54872;BME280;43914;57.680;11.982;2022-07-23T12:41:06;100543.77;;;19.42;68.73
54872;BME280;43914;57.680;11.982;2022-07-23T12:43:35;100540.83;;;19.46;68.12
54872;BME280;43914;57.680;11.982;2022-07-23T12:51:19;100545.62;;;19.56;67.77
54872;BME280;43914;57.680;11.982;2022-07-23T12:53:49;100543.53;;;19.63;67.65
54872;BME280;43914;57.680;11.982;2022-07-23T12:56:21;100548.89;;;19.75;67.67
54872;BME280;43914;57.680;11.982;2022-07-23T12:58:56;100545.25;;;19.86;67.42
54872;BME280;43914;57.680;11.982;2022-07-23T13:04:06;100537.12;;;20.11;66.60
54872;BME280;43914;57.680;11.982;2022-07-23T13:06:37;100535.63;;;20.21;65.71
54872;BME280;43914;57.680;11.982;2022-07-23T13:09:06;100538.98;;;20.28;65.56
54872;BME280;43914;57.680;11.982;2022-07-23T13:11:33;100533.86;;;20.34;65.51
54872;BME280;43914;57.680;11.982;2022-07-23T13:14:00;100535.51;;;20.35;64.25
54872;BME280;43914;57.680;11.982;2022-07-23T13:16:29;100533.00;;;20.28;64.56
54872;BME280;43914;57.680;11.982;2022-07-23T13:18:57;100527.08;;;20.37;64.95
54872;BME280;43914;57.680;11.982;2022-07-23T13:21:24;100533.12;;;20.41;65.07
54872;BME280;43914;57.680;11.982;2022-07-23T13:23:54;100527.09;;;20.39;64.43
54872;BME280;43914;57.680;11.982;2022-07-23T13:26:20;100531.13;;;20.34;63.96
54872;BME280;43914;57.680;11.982;2022-07-23T13:28:46;100522.84;;;20.26;64.29
54872;BME280;43914;57.680;11.982;2022-07-23T13:31:13;100535.40;;;20.25;64.61